createdAt,value
2018-07-17T00:00:52.712Z,55.20
2018-07-17T00:03:21.969Z,55.30
2018-07-17T00:05:51.390Z,55.50
2018-07-17T00:08:20.628Z,55.60
2018-07-17T00:10:50.011Z,55.60
2018-07-17T00:13:19.638Z,55.60
2018-07-17T00:15:49.273Z,55.80
2018-07-17T00:18:18.942Z,56.00
2018-07-17T00:20:48.659Z,56.10
2018-07-17T00:23:18.487Z,56.20
2018-07-17T00:25:48.164Z,56.20
2018-07-17T00:28:18.356Z,56.30
2018-07-17T00:30:48.113Z,56.30
2018-07-17T00:33:17.942Z,56.40
2018-07-17T00:35:47.385Z,56.50
2018-07-17T00:38:17.399Z,56.60
2018-07-17T00:40:47.532Z,56.80
2018-07-17T00:43:18.033Z,56.90
2018-07-17T00:45:47.381Z,57.00
2018-07-17T00:48:16.941Z,57.00
2018-07-17T00:50:59.126Z,57.00
2018-07-17T00:53:28.464Z,57.10
2018-07-17T00:55:57.748Z,57.20
2018-07-17T00:58:27.184Z,57.30
2018-07-17T01:00:55.750Z,57.50
2018-07-17T01:03:30.234Z,57.70
2018-07-17T01:06:04.913Z,57.40
2018-07-17T01:08:40.201Z,57.30
2018-07-17T01:11:15.104Z,57.30
2018-07-17T01:13:51.445Z,57.40
2018-07-17T01:16:21.321Z,57.40
2018-07-17T01:18:50.891Z,57.40
2018-07-17T01:23:49.591Z,57.60
2018-07-17T01:26:19.531Z,57.60
2018-07-17T01:28:54.111Z,57.70
2018-07-17T01:31:24.582Z,58.00
2018-07-17T01:33:54.380Z,57.90
2018-07-17T01:36:23.844Z,58.20
2018-07-17T01:38:53.257Z,58.20
2018-07-17T01:41:22.885Z,58.30
2018-07-17T01:43:53.503Z,58.40
2018-07-17T01:46:23.171Z,58.40
2018-07-17T01:48:52.988Z,58.60
2018-07-17T01:51:22.817Z,58.70
2018-07-17T01:53:52.334Z,58.90
2018-07-17T01:56:22.184Z,58.90
2018-07-17T01:58:51.745Z,59.00
2018-07-17T02:01:21.534Z,59.10
2018-07-17T02:03:51.463Z,59.20
2018-07-17T02:06:21.113Z,59.40
2018-07-17T02:08:50.607Z,59.40
2018-07-17T02:11:19.806Z,59.50
2018-07-17T02:13:49.077Z,59.50
2018-07-17T02:16:19.729Z,59.50
2018-07-17T02:18:49.568Z,59.70
2018-07-17T02:21:18.853Z,59.90
2018-07-17T02:23:51.984Z,59.80
2018-07-17T02:26:21.949Z,59.80
2018-07-17T02:28:51.558Z,59.90
2018-07-17T02:31:21.396Z,60.00
2018-07-17T02:33:51.223Z,60.20
2018-07-17T02:36:20.913Z,60.30
2018-07-17T02:38:50.849Z,60.40
2018-07-17T02:41:20.800Z,60.40
2018-07-17T02:43:50.375Z,60.50
2018-07-17T02:46:20.977Z,60.60
2018-07-17T02:48:50.122Z,60.40
2018-07-17T02:51:19.603Z,60.50
2018-07-17T02:53:49.189Z,60.50
2018-07-17T02:56:20.323Z,60.70
2018-07-17T02:58:50.749Z,60.70
2018-07-17T03:01:20.764Z,60.90
2018-07-17T03:03:50.806Z,61.20
2018-07-17T03:06:21.138Z,61.20
2018-07-17T03:08:55.273Z,61.10
2018-07-17T03:11:24.764Z,61.10
2018-07-17T03:13:54.440Z,61.10
2018-07-17T03:16:24.125Z,61.30
2018-07-17T03:18:53.861Z,61.30
2018-07-17T03:21:23.574Z,61.30
2018-07-17T03:23:53.150Z,61.20
2018-07-17T03:26:23.274Z,61.00
2018-07-17T03:28:56.065Z,61.20
2018-07-17T03:31:25.500Z,60.90
2018-07-17T03:33:55.215Z,61.00
2018-07-17T03:36:24.599Z,60.90
2018-07-17T03:38:53.784Z,60.90
2018-07-17T03:41:23.528Z,60.60
2018-07-17T03:43:53.154Z,60.50
2018-07-17T03:46:22.860Z,60.60
2018-07-17T03:48:53.250Z,60.50
2018-07-17T03:51:26.056Z,60.60
2018-07-17T03:53:56.272Z,60.60
2018-07-17T03:56:25.516Z,60.70
2018-07-17T03:58:54.794Z,60.40
2018-07-17T04:01:24.440Z,60.40
2018-07-17T04:03:53.668Z,60.30
2018-07-17T04:06:22.893Z,60.30
2018-07-17T04:08:52.157Z,60.30
2018-07-17T04:11:21.497Z,60.30
2018-07-17T04:13:51.105Z,60.50
2018-07-17T04:16:20.933Z,60.40
2018-07-17T04:18:50.879Z,60.50
2018-07-17T04:21:20.611Z,60.50
2018-07-17T04:23:50.486Z,60.50
2018-07-17T04:26:20.321Z,60.50
2018-07-17T04:28:49.959Z,60.60
2018-07-17T04:31:19.528Z,60.60
2018-07-17T04:33:48.851Z,60.50
2018-07-17T04:36:18.648Z,60.50
2018-07-17T04:38:48.258Z,60.60
2018-07-17T04:41:18.071Z,60.60
2018-07-17T04:43:49.484Z,60.50
2018-07-17T04:46:19.651Z,60.50
2018-07-17T04:48:50.325Z,60.70
2018-07-17T04:51:20.423Z,60.60
2018-07-17T04:53:50.798Z,60.60
2018-07-17T04:56:20.681Z,60.60
2018-07-17T04:58:50.403Z,60.60
2018-07-17T05:01:21.973Z,60.70
2018-07-17T05:03:51.317Z,60.50
2018-07-17T05:06:21.743Z,60.60
2018-07-17T05:08:51.313Z,60.50
2018-07-17T05:11:21.082Z,60.60
2018-07-17T05:13:50.629Z,60.70
2018-07-17T05:16:21.797Z,61.40
2018-07-17T05:18:51.329Z,60.40
2018-07-17T05:21:20.804Z,60.30
2018-07-17T05:23:50.164Z,60.10
2018-07-17T05:28:49.160Z,59.90
2018-07-17T05:31:19.016Z,59.50
2018-07-17T05:33:48.319Z,59.80
2018-07-17T05:36:17.649Z,59.80
2018-07-17T05:38:46.890Z,59.80
2018-07-17T05:41:23.748Z,59.80
2018-07-17T05:43:53.134Z,59.70
2018-07-17T05:46:22.913Z,59.70
2018-07-17T05:48:52.182Z,59.80
2018-07-17T06:10:31.025Z,59.60
2018-07-17T06:24:51.980Z,59.90
2018-07-17T06:27:46.977Z,59.00
2018-07-17T06:34:46.411Z,58.50
2018-07-17T06:40:55.975Z,58.50
2018-07-17T06:53:35.335Z,57.40
2018-07-17T07:10:09.552Z,57.00
2018-07-17T07:12:38.787Z,56.80
2018-07-17T07:15:08.109Z,56.70
2018-07-17T07:17:37.427Z,56.60
2018-07-17T07:20:12.747Z,56.50
2018-07-17T07:22:53.946Z,56.40
2018-07-17T07:25:48.132Z,56.50
2018-07-17T07:29:02.077Z,56.50
2018-07-17T07:32:30.237Z,56.40
2018-07-17T07:52:27.598Z,55.90
2018-07-17T07:55:21.705Z,55.90
2018-07-17T08:10:43.102Z,55.00
2018-07-17T08:27:18.879Z,54.70
2018-07-17T08:46:55.361Z,53.80
2018-07-17T08:49:51.443Z,53.20
2018-07-17T08:53:00.903Z,53.10
2018-07-17T09:05:18.111Z,52.50
2018-07-17T09:11:02.234Z,51.70
2018-07-17T09:13:45.572Z,51.50
2018-07-17T09:16:30.613Z,51.00
2018-07-17T09:19:14.755Z,50.80
2018-07-17T09:21:45.862Z,50.50
2018-07-17T09:24:23.187Z,50.50
2018-07-17T09:27:24.285Z,50.80
2018-07-17T09:29:54.680Z,49.90
2018-07-17T09:32:28.516Z,49.50
2018-07-17T09:37:50.204Z,48.60
2018-07-17T09:40:21.722Z,48.70
2018-07-17T09:43:02.809Z,48.50
2018-07-17T09:52:04.448Z,47.30
2018-07-17T10:52:07.768Z,42.30
2018-07-17T10:58:21.052Z,41.60
2018-07-17T11:08:18.730Z,40.70
2018-07-17T11:14:22.080Z,40.90
2018-07-17T11:17:06.296Z,40.90
2018-07-17T11:19:56.319Z,41.20
2018-07-17T11:22:59.470Z,41.10
2018-07-17T11:25:39.608Z,40.90
2018-07-17T11:31:16.122Z,40.70
2018-07-17T11:41:08.962Z,38.50
2018-07-17T12:06:39.250Z,35.30
2018-07-17T12:09:52.937Z,35.40
2018-07-17T12:12:35.463Z,35.50
2018-07-17T12:26:19.380Z,33.70
2018-07-17T12:38:11.843Z,30.80
2018-07-17T12:44:13.728Z,29.40
2018-07-17T12:51:01.077Z,28.90
2018-07-17T12:57:20.034Z,28.40
2018-07-17T13:04:43.607Z,27.80
2018-07-17T13:10:29.550Z,27.60
2018-07-17T13:19:15.030Z,28.00
2018-07-17T13:22:01.608Z,28.00
2018-07-17T13:24:40.727Z,28.00
2018-07-17T13:27:35.676Z,27.50
2018-07-17T13:30:30.125Z,27.20
2018-07-17T13:33:18.387Z,27.20
2018-07-17T13:36:15.222Z,27.30
2018-07-17T13:38:49.979Z,27.30
2018-07-17T13:41:24.043Z,27.90
2018-07-17T13:47:34.371Z,27.80
2018-07-17T14:15:26.130Z,28.80
2018-07-17T14:27:47.755Z,28.20
2018-07-17T14:30:31.030Z,28.10
2018-07-17T14:36:26.584Z,28.40
2018-07-17T14:39:43.715Z,28.60
2018-07-17T14:42:15.355Z,28.90
2018-07-17T14:44:47.767Z,28.70
2018-07-17T14:47:18.284Z,28.50
2018-07-17T14:50:07.244Z,28.30
2018-07-17T14:53:12.350Z,28.60
2018-07-17T15:02:31.366Z,29.00
2018-07-17T15:05:36.082Z,29.10
2018-07-17T15:31:00.067Z,29.60
2018-07-17T15:36:44.170Z,29.80
2018-07-17T15:42:39.918Z,30.00
2018-07-17T15:45:51.365Z,30.70
2018-07-17T15:48:31.088Z,31.10
2018-07-17T15:51:22.960Z,30.20
2018-07-17T15:54:06.623Z,29.90
2018-07-17T15:57:00.522Z,29.80
2018-07-17T16:00:12.692Z,30.00
2018-07-17T16:14:49.508Z,29.40
2018-07-17T16:20:06.511Z,29.60
2018-07-17T16:22:36.042Z,28.90
2018-07-17T16:25:05.640Z,28.80
2018-07-17T16:27:35.984Z,28.70
2018-07-17T16:30:06.489Z,29.00
2018-07-17T16:32:35.758Z,28.70
2018-07-17T16:35:05.248Z,28.70
2018-07-17T16:37:34.708Z,28.70
2018-07-17T16:40:04.205Z,28.60
2018-07-17T16:42:33.655Z,28.70
2018-07-17T16:45:03.745Z,28.40
2018-07-17T16:47:33.545Z,28.90
2018-07-17T16:52:32.173Z,28.50
2018-07-17T16:55:01.774Z,28.60
2018-07-17T16:57:32.261Z,28.70
2018-07-17T17:00:01.690Z,28.90
2018-07-17T17:02:31.136Z,28.80
2018-07-17T17:05:00.499Z,28.80
2018-07-17T17:07:29.849Z,28.80
2018-07-17T17:09:59.333Z,28.80
2018-07-17T17:12:28.749Z,28.80
2018-07-17T17:14:58.187Z,28.90
2018-07-17T17:17:28.253Z,28.80
2018-07-17T17:19:57.544Z,28.90
2018-07-17T17:22:27.957Z,28.80
2018-07-17T17:24:57.492Z,28.80
2018-07-17T17:27:26.735Z,28.70
2018-07-17T17:29:56.058Z,28.80
2018-07-17T17:32:25.301Z,29.00
2018-07-17T17:34:54.987Z,29.00
2018-07-17T17:37:24.332Z,29.10
2018-07-17T17:39:55.568Z,29.30
2018-07-17T17:42:25.015Z,29.40
2018-07-17T17:44:55.115Z,29.50
2018-07-17T17:47:24.421Z,29.60
2018-07-17T17:49:54.868Z,29.70
2018-07-17T17:52:24.181Z,29.80
2018-07-17T17:54:53.847Z,30.00
2018-07-17T17:57:23.216Z,30.00
2018-07-17T17:59:52.565Z,30.20
2018-07-17T18:02:22.628Z,30.20
2018-07-17T18:04:51.993Z,30.40
2018-07-17T18:07:21.647Z,30.60
2018-07-17T18:09:52.159Z,30.80
2018-07-17T18:12:21.601Z,31.00
2018-07-17T18:14:51.044Z,31.30
2018-07-17T18:17:20.379Z,31.50
2018-07-17T18:19:49.883Z,31.90
2018-07-17T18:22:20.301Z,32.20
2018-07-17T18:24:49.728Z,32.30
2018-07-17T18:27:19.111Z,32.70
2018-07-17T18:29:48.531Z,33.20
2018-07-17T18:32:17.949Z,33.10
2018-07-17T18:34:48.043Z,33.50
2018-07-17T18:37:17.713Z,33.90
2018-07-17T18:39:47.540Z,34.20
2018-07-17T18:42:17.174Z,35.00
2018-07-17T18:44:46.611Z,35.60
2018-07-17T18:47:16.176Z,36.00
2018-07-17T19:00:54.368Z,38.80
2018-07-17T19:04:23.714Z,39.50
2018-07-17T19:07:23.506Z,40.00
2018-07-17T19:34:08.966Z,43.90
2018-07-17T19:36:38.491Z,43.50
2018-07-17T19:39:14.063Z,44.30
2018-07-17T19:41:51.836Z,45.20
2018-07-17T19:44:51.774Z,45.40
2018-07-17T19:47:49.469Z,45.90
2018-07-17T19:50:35.326Z,46.10
2018-07-17T19:56:20.120Z,47.00
2018-07-17T20:02:40.313Z,47.40
2018-07-17T20:11:29.498Z,47.40
2018-07-17T20:14:40.980Z,48.00
2018-07-17T20:18:07.072Z,48.20
2018-07-17T20:23:45.923Z,48.70
2018-07-17T20:26:20.749Z,49.30
2018-07-17T20:32:03.800Z,49.90
2018-07-17T20:34:45.831Z,50.00
2018-07-17T20:37:35.085Z,50.00
2018-07-17T20:40:22.503Z,50.20
2018-07-17T20:43:05.900Z,50.40
2018-07-17T20:48:38.254Z,50.90
2018-07-17T20:51:59.738Z,51.30
2018-07-17T20:54:56.718Z,51.40
2018-07-17T20:57:40.000Z,51.40
2018-07-17T21:00:20.158Z,51.70
2018-07-17T21:05:23.947Z,52.10
2018-07-17T21:07:57.550Z,52.60
2018-07-17T21:10:30.948Z,52.70
2018-07-17T21:13:13.731Z,52.90
2018-07-17T21:15:59.764Z,53.10
2018-07-17T21:18:46.601Z,53.10
2018-07-17T21:21:23.405Z,53.30
2018-07-17T21:23:56.913Z,53.70
2018-07-17T21:26:42.263Z,53.90
2018-07-17T21:29:22.679Z,54.00
2018-07-17T21:31:53.508Z,54.10
2018-07-17T21:34:26.622Z,55.00
2018-07-17T21:37:04.154Z,54.60
2018-07-17T21:39:34.976Z,54.70
2018-07-17T21:42:15.224Z,54.70
2018-07-17T21:44:52.197Z,54.90
2018-07-17T21:50:37.163Z,55.40
2018-07-17T21:53:17.703Z,55.30
2018-07-17T21:58:30.617Z,55.30
2018-07-17T22:01:04.633Z,55.60
2018-07-17T22:06:31.461Z,55.80
2018-07-17T22:09:22.609Z,56.00
2018-07-17T22:12:07.721Z,56.30
2018-07-17T22:17:48.052Z,56.50
2018-07-17T22:20:41.872Z,57.20
2018-07-17T22:23:28.977Z,57.00
2018-07-17T22:28:59.132Z,57.20
2018-07-17T22:31:38.189Z,57.40
2018-07-17T22:34:23.377Z,57.50
2018-07-17T22:42:46.186Z,57.60
2018-07-17T22:45:26.923Z,57.80
2018-07-17T22:54:00.172Z,58.00
2018-07-17T22:56:32.921Z,58.80
2018-07-17T22:59:02.294Z,58.10
2018-07-17T23:01:46.380Z,58.40
2018-07-17T23:04:37.300Z,58.60
2018-07-17T23:15:42.048Z,59.10
2018-07-17T23:29:17.833Z,59.80
2018-07-17T23:32:12.422Z,59.80
2018-07-17T23:35:09.598Z,58.90
2018-07-17T23:37:58.644Z,60.00
2018-07-17T23:40:51.043Z,60.20
2018-07-17T23:43:34.610Z,60.90
2018-07-17T23:49:00.443Z,61.00
2018-07-17T23:54:12.541Z,61.00
2018-07-17T23:56:49.380Z,61.50
2018-07-17T23:59:51.152Z,61.20
